»·PEaware :: N422AZ KBLH-KPGA

N422AZ :: KBLH-KPGA

FLIGHT INFORMATION

Flight Status: Arrived
Operator: Privately registered:
United States
More flights under this callsign
Pilot: Justo R. (27545)
Aircraft: SOCATA TBM-900
(TBM9)
More flights by this aircraft type
Origin: KBLH Blythe
United States
Destination: KPGA Page Mun
United States
More flights between these airports :: More routes between these airports
Route: BLH V135 EED V208 GCN V293 KLIFF
File this flight plan on PilotEdge
Remarks:
Altitude:
(Current/Filed)
25,000ft
Speed:
(Current/Filed)
315kts
Departed: 14-Jan-20 09:45 AM
Arrived: 14-Jan-20 10:52 AM
Distance/Time
Traveled:
255nm/1:07
Distance/Time
To Go:
Arrived

Flight Plot

Page will automatically refresh every two minutes.

Flight plan parsing failed; only flown route is shown


Map Options




Map Legend


Flown Route
Filed Route
Departure Airport
Arrival Airport
Navaid (VOR, NDB)
Fix

Horizontal Profiles

Position Reports

Time Latitude Longitude Heading Altitude Ground
Speed
14-Jan-20 09:33 33.614051 -114.713093 90 395ft 0kts
14-Jan-20 09:34 33.614051 -114.713093 90 395ft 0kts
14-Jan-20 09:35 33.614051 -114.713093 90 395ft 0kts
14-Jan-20 09:36 33.614051 -114.713093 90 395ft 0kts
14-Jan-20 09:37 33.614051 -114.713093 90 395ft 0kts
14-Jan-20 09:38 33.614051 -114.713093 90 395ft 0kts
14-Jan-20 09:39 33.614051 -114.713093 90 395ft 0kts
14-Jan-20 09:40 33.614051 -114.713093 90 395ft 0kts
14-Jan-20 09:41 33.615083 -114.712198 63 395ft 13kts
14-Jan-20 09:42 33.615261 -114.706899 60 395ft 13kts
14-Jan-20 09:43 33.615771 -114.706212 15 395ft 0kts
14-Jan-20 09:44 33.616728 -114.719075 270 657ft 113kts
14-Jan-20 09:45 33.596852 -114.753088 217 2699ft 142kts
14-Jan-20 09:46 33.579529 -114.795952 252 4932ft 141kts
14-Jan-20 09:47 33.605669 -114.813424 36 6747ft 175kts
14-Jan-20 09:48 33.644117 -114.778949 33 8832ft 176kts
14-Jan-20 09:49 33.685953 -114.749505 0 11145ft 172kts
14-Jan-20 09:50 33.734968 -114.742490 359 13215ft 178kts
14-Jan-20 09:51 33.785979 -114.734390 0 15502ft 187kts
14-Jan-20 09:52 33.838608 -114.724421 359 17572ft 195kts
14-Jan-20 09:53 33.893866 -114.714722 357 19587ft 204kts
14-Jan-20 09:54 33.951019 -114.705748 356 21746ft 209kts
14-Jan-20 09:55 34.010649 -114.696392 355 23886ft 219kts
14-Jan-20 09:56 34.074305 -114.686539 356 25184ft 259kts
14-Jan-20 09:57 34.150253 -114.667146 5 25164ft 311kts
14-Jan-20 09:58 34.237096 -114.640045 6 25160ft 325kts
14-Jan-20 09:59 34.326182 -114.612234 6 25155ft 329kts
14-Jan-20 10:00 34.416175 -114.584093 6 25151ft 331kts
14-Jan-20 10:01 34.506736 -114.555657 5 25172ft 330kts
14-Jan-20 10:02 34.596223 -114.527595 5 25173ft 329kts
14-Jan-20 10:03 34.686051 -114.499319 5 25166ft 329kts
14-Jan-20 10:04 34.774555 -114.466225 31 25125ft 348kts
14-Jan-20 10:05 34.847944 -114.386591 35 25169ft 349kts
14-Jan-20 10:06 34.921298 -114.307969 35 25163ft 350kts
14-Jan-20 10:07 34.994903 -114.228936 35 25166ft 353kts
14-Jan-20 10:08 35.069776 -114.148340 34 25154ft 358kts
14-Jan-20 10:09 35.145472 -114.066655 34 25138ft 359kts
14-Jan-20 10:10 35.220801 -113.985151 34 25135ft 359kts
14-Jan-20 10:11 35.296357 -113.903178 34 25137ft 360kts
14-Jan-20 10:12 35.371791 -113.821141 34 25139ft 360kts
14-Jan-20 10:13 35.447429 -113.738658 34 25140ft 360kts
14-Jan-20 10:14 35.522918 -113.656103 34 25142ft 361kts
14-Jan-20 10:15 35.598546 -113.573209 34 25143ft 361kts
14-Jan-20 10:16 35.643367 -113.469216 72 25146ft 373kts
14-Jan-20 10:17 35.673530 -113.345889 72 25145ft 374kts
14-Jan-20 10:18 35.703609 -113.222788 72 25142ft 373kts
14-Jan-20 10:19 35.733581 -113.099487 73 25168ft 372kts
14-Jan-20 10:20 35.763331 -112.976502 73 25184ft 372kts
14-Jan-20 10:21 35.793059 -112.853071 73 25186ft 373kts
14-Jan-20 10:22 35.822654 -112.729447 73 25188ft 374kts
14-Jan-20 10:23 35.852476 -112.604247 73 25190ft 374kts
14-Jan-20 10:24 35.882147 -112.479124 73 25192ft 375kts
14-Jan-20 10:25 35.911686 -112.353849 74 25193ft 375kts
14-Jan-20 10:26 35.940996 -112.228896 74 25181ft 374kts
14-Jan-20 10:27 35.991807 -112.123736 22 25198ft 355kts
14-Jan-20 10:28 36.078292 -112.062236 21 25185ft 355kts
14-Jan-20 10:29 36.165161 -112.000545 18 25186ft 352kts
14-Jan-20 10:30 36.249632 -111.934739 23 25102ft 358kts
14-Jan-20 10:31 36.334564 -111.868842 23 25188ft 357kts
14-Jan-20 10:32 36.420869 -111.804208 22 25072ft 358kts
14-Jan-20 10:33 36.503599 -111.745578 21 24377ft 361kts
14-Jan-20 10:34 36.588024 -111.687455 20 22191ft 336kts
14-Jan-20 10:35 36.670011 -111.630608 21 19605ft 331kts
14-Jan-20 10:36 36.748967 -111.574259 22 17266ft 320kts
14-Jan-20 10:37 36.828897 -111.550839 0 15646ft 286kts
14-Jan-20 10:38 36.907942 -111.532205 3 13526ft 291kts
14-Jan-20 10:39 36.985791 -111.513099 0 12071ft 267kts
14-Jan-20 10:40 37.056787 -111.502340 357 11479ft 243kts
14-Jan-20 10:41 37.125710 -111.494986 358 10437ft 246kts
14-Jan-20 10:42 37.188172 -111.502441 326 10356ft 200kts
14-Jan-20 10:44 37.236448 -111.542383 296 9725ft 206kts
14-Jan-20 10:45 37.200628 -111.569681 136 8755ft 236kts
14-Jan-20 10:46 37.161873 -111.503772 136 8007ft 234kts
14-Jan-20 10:47 37.101770 -111.486303 171 7435ft 219kts
14-Jan-20 10:48 37.042674 -111.473428 170 6562ft 202kts
14-Jan-20 10:49 36.993882 -111.462637 170 5601ft 152kts
14-Jan-20 10:50 36.959729 -111.455228 170 4838ft 97kts
14-Jan-20 10:51 36.932773 -111.449545 169 4267ft 93kts
14-Jan-20 10:52 36.923018 -111.448045 217 4268ft 13kts
14-Jan-20 10:53 36.922605 -111.448855 327 4270ft 0kts
14-Jan-20 10:54 36.922605 -111.448855 327 4270ft 0kts
14-Jan-20 10:55 36.922605 -111.448855 327 4270ft 0kts

Navigation Log

Ident Type
Flight plan parsing failed, navigation log unavailable